createdAt,value
2018-04-10T00:04:15.026Z,12.20
2018-04-10T00:10:19.369Z,12.20
2018-04-10T00:16:23.757Z,12.20
2018-04-10T00:22:28.875Z,12.10
2018-04-10T00:28:33.216Z,12.10
2018-04-10T00:34:37.573Z,12.00
2018-04-10T00:40:41.919Z,11.90
2018-04-10T00:46:47.023Z,11.60
2018-04-10T00:52:51.372Z,11.60
2018-04-10T00:58:55.716Z,11.70
2018-04-10T01:05:00.093Z,11.70
2018-04-10T01:11:04.435Z,11.60
2018-04-10T01:17:08.790Z,11.60
2018-04-10T01:23:13.927Z,11.50
2018-04-10T01:29:18.262Z,11.40
2018-04-10T01:35:22.632Z,11.30
2018-04-10T01:41:27.747Z,11.20
2018-04-10T01:47:32.157Z,11.20
2018-04-10T01:53:36.526Z,11.20
2018-04-10T01:59:40.869Z,11.20
2018-04-10T02:05:45.219Z,11.00
2018-04-10T02:20:14.000Z,10.90
2018-04-10T02:26:18.486Z,10.80
2018-04-10T02:32:22.892Z,10.80
2018-04-10T02:38:27.339Z,10.90
2018-04-10T02:44:31.764Z,11.00
2018-04-10T02:50:36.305Z,11.00
2018-04-10T02:56:40.896Z,11.00
2018-04-10T03:02:45.387Z,11.00
2018-04-10T03:08:49.754Z,10.90
2018-04-10T03:14:54.306Z,10.90
2018-04-10T03:20:58.855Z,10.90
2018-04-10T03:27:03.217Z,10.90
2018-04-10T03:33:07.594Z,10.80
2018-04-10T03:39:12.453Z,10.90
2018-04-10T03:45:17.002Z,10.90
2018-04-10T03:51:21.423Z,11.00
2018-04-10T03:57:25.842Z,11.00
2018-04-10T04:03:30.207Z,10.80
2018-04-10T04:09:35.479Z,10.10
2018-04-10T04:15:40.314Z,10.10
2018-04-10T04:22:07.341Z,10.00
2018-04-10T04:28:11.722Z,10.00
2018-04-10T04:34:16.095Z,9.90
2018-04-10T04:40:20.592Z,9.80
2018-04-10T04:46:24.960Z,9.80
2018-04-10T04:52:29.483Z,9.70
2018-04-10T04:58:34.637Z,9.50
2018-04-10T05:04:39.062Z,9.50
2018-04-10T05:10:44.700Z,9.60
2018-04-10T05:16:49.231Z,9.60
2018-04-10T05:22:54.347Z,9.70
2018-04-10T05:28:59.649Z,9.80
2018-04-10T05:35:04.339Z,9.80
2018-04-10T05:41:08.772Z,9.90
2018-04-10T05:47:14.315Z,10.20
2018-04-10T05:53:18.680Z,10.10
2018-04-10T05:59:23.175Z,10.20
2018-04-10T06:05:27.543Z,10.40
2018-04-10T06:11:31.971Z,10.60
2018-04-10T06:17:37.123Z,10.80
2018-04-10T06:23:41.917Z,10.80
2018-04-10T06:29:47.516Z,11.20
2018-04-10T06:35:51.920Z,11.20
2018-04-10T06:41:56.285Z,11.60
2018-04-10T06:48:00.961Z,11.90
2018-04-10T06:54:05.486Z,12.40
2018-04-10T07:00:10.069Z,15.00
2018-04-10T07:06:14.540Z,18.30
2018-04-10T07:12:18.903Z,20.50
2018-04-10T07:18:24.024Z,20.30
2018-04-10T07:24:28.477Z,20.30
2018-04-10T07:30:33.704Z,17.70
2018-04-10T07:36:38.062Z,17.60
2018-04-10T07:42:43.047Z,17.40
2018-04-10T07:48:47.622Z,17.20
2018-04-10T07:54:52.081Z,17.10
2018-04-10T08:00:57.297Z,17.50
2018-04-10T08:07:02.776Z,17.50
2018-04-10T08:13:07.971Z,18.10
2018-04-10T08:19:13.011Z,18.10
2018-04-10T08:25:17.470Z,18.40
2018-04-10T08:31:21.824Z,18.50
2018-04-10T08:37:26.226Z,18.60
2018-04-10T08:43:30.589Z,18.50
2018-04-10T08:49:34.966Z,18.70
2018-04-10T08:55:39.438Z,19.10
2018-04-10T09:01:44.064Z,19.60
2018-04-10T09:07:48.494Z,20.10
2018-04-10T09:13:52.860Z,20.40
2018-04-10T09:19:57.563Z,20.80
2018-04-10T09:26:02.090Z,21.40
2018-04-10T09:32:08.110Z,22.50
2018-04-10T09:38:13.124Z,22.50
2018-04-10T09:44:17.499Z,23.00
2018-04-10T09:50:21.879Z,24.00
2018-04-10T09:56:26.553Z,24.90
2018-04-10T10:02:31.113Z,25.60
2018-04-10T10:08:35.512Z,26.30
2018-04-10T10:14:39.945Z,27.00
2018-04-10T10:20:44.717Z,26.50
2018-04-10T10:26:49.098Z,26.70
2018-04-10T10:32:53.641Z,27.20
2018-04-10T10:38:58.011Z,29.00
2018-04-10T10:45:02.377Z,29.90
2018-04-10T10:51:06.741Z,29.70
2018-04-10T10:57:11.761Z,29.70
2018-04-10T11:03:16.192Z,30.80
2018-04-10T11:09:20.570Z,29.30
2018-04-10T11:15:25.055Z,29.90
2018-04-10T11:21:30.201Z,30.40
2018-04-10T11:27:34.641Z,30.30
2018-04-10T11:33:39.047Z,31.00
2018-04-10T11:39:43.415Z,30.40
2018-04-10T11:45:47.875Z,31.50
2018-04-10T11:51:52.288Z,31.80
2018-04-10T11:57:56.702Z,31.00
2018-04-10T12:04:01.130Z,31.70
2018-04-10T12:10:05.580Z,31.70
2018-04-10T12:16:10.297Z,32.40
2018-04-10T12:22:14.852Z,31.70
2018-04-10T12:28:19.340Z,31.70
2018-04-10T12:34:23.790Z,30.00
2018-04-10T12:40:28.171Z,30.10
2018-04-10T12:46:32.546Z,29.90
2018-04-10T12:52:36.922Z,31.00
2018-04-10T12:58:41.332Z,32.20
2018-04-10T13:04:45.718Z,32.20
2018-04-10T13:10:50.172Z,32.10
2018-04-10T13:16:55.036Z,31.60
2018-04-10T13:22:59.454Z,31.20
2018-04-10T13:29:03.909Z,32.00
2018-04-10T13:35:08.444Z,32.30
2018-04-10T13:41:13.634Z,31.90
2018-04-10T13:47:18.113Z,31.90
2018-04-10T13:53:23.252Z,31.80
2018-04-10T13:59:27.761Z,31.80
2018-04-10T14:05:32.143Z,31.00
2018-04-10T14:11:36.731Z,30.50
2018-04-10T14:17:42.608Z,29.70
2018-04-10T14:23:47.212Z,29.60
2018-04-10T14:29:51.585Z,29.90
2018-04-10T14:35:55.966Z,30.80
2018-04-10T14:42:01.092Z,31.00
2018-04-10T14:48:05.502Z,31.00
2018-04-10T14:54:10.099Z,30.90
2018-04-10T15:00:14.729Z,28.60
2018-04-10T15:06:19.093Z,27.70
2018-04-10T15:12:23.477Z,27.00
2018-04-10T15:18:27.833Z,26.70
2018-04-10T15:24:32.257Z,25.90
2018-04-10T15:30:36.716Z,26.60
2018-04-10T15:36:41.291Z,26.00
2018-04-10T15:42:46.425Z,25.60
2018-04-10T15:48:50.815Z,25.50
2018-04-10T15:54:55.218Z,25.00
2018-04-10T16:00:59.586Z,24.50
2018-04-10T16:07:04.713Z,23.10
2018-04-10T16:13:09.176Z,23.10
2018-04-10T16:19:13.964Z,23.50
2018-04-10T16:25:18.413Z,24.80
2018-04-10T16:31:23.543Z,25.20
2018-04-10T16:37:27.942Z,25.10
2018-04-10T16:43:32.300Z,25.00
2018-04-10T16:49:36.685Z,25.70
2018-04-10T16:55:42.367Z,25.90
2018-04-10T17:01:46.778Z,24.40
2018-04-10T17:07:51.169Z,23.40
2018-04-10T17:13:56.446Z,22.70
2018-04-10T17:20:01.712Z,22.20
2018-04-10T17:26:06.084Z,22.20
2018-04-10T17:32:10.544Z,21.80
2018-04-10T17:38:15.184Z,21.20
2018-04-10T17:44:19.561Z,20.90
2018-04-10T17:50:23.939Z,20.60
2018-04-10T17:56:28.341Z,20.40
2018-04-10T18:02:32.722Z,20.20
2018-04-10T18:08:37.077Z,19.70
2018-04-10T18:14:43.027Z,18.60
2018-04-10T18:20:47.480Z,18.60
2018-04-10T18:26:52.107Z,18.40
2018-04-10T18:32:56.480Z,18.20
2018-04-10T18:39:00.826Z,18.00
2018-04-10T18:45:05.292Z,18.00
2018-04-10T18:51:09.719Z,17.80
2018-04-10T18:57:14.198Z,17.60
2018-04-10T19:03:18.548Z,17.50
2018-04-10T19:09:22.960Z,17.60
2018-04-10T19:15:27.310Z,17.70
2018-04-10T19:21:31.745Z,17.70
2018-04-10T19:27:36.098Z,17.90
2018-04-10T19:33:41.368Z,17.70
2018-04-10T19:39:45.750Z,17.70
2018-04-10T19:45:50.248Z,17.70
2018-04-10T19:51:54.605Z,17.60
2018-04-10T19:57:58.975Z,17.50
2018-04-10T20:04:03.384Z,17.30
2018-04-10T20:10:07.767Z,17.10
2018-04-10T20:16:12.922Z,16.60
2018-04-10T20:22:18.057Z,16.50
2018-04-10T20:28:22.418Z,16.40
2018-04-10T20:34:26.775Z,16.50
2018-04-10T20:40:31.147Z,16.50
2018-04-10T20:46:35.539Z,16.30
2018-04-10T20:52:40.370Z,16.30
2018-04-10T20:58:45.559Z,16.50
2018-04-10T21:04:50.069Z,16.50
2018-04-10T21:10:54.453Z,16.30
2018-04-10T21:16:59.570Z,16.00
2018-04-10T21:23:03.932Z,16.00
2018-04-10T21:29:08.308Z,15.90
2018-04-10T21:35:13.482Z,16.00
2018-04-10T21:41:17.883Z,15.90
2018-04-10T21:47:22.252Z,15.70
2018-04-10T21:53:27.414Z,15.70
2018-04-10T21:59:31.822Z,15.70
2018-04-10T22:05:37.017Z,15.40
2018-04-10T22:11:42.228Z,15.10
2018-04-10T22:17:46.623Z,15.10
2018-04-10T22:23:50.982Z,15.10
2018-04-10T22:29:55.330Z,15.10
2018-04-10T22:36:00.415Z,14.90
2018-04-10T22:42:04.782Z,14.90
2018-04-10T22:48:09.137Z,14.80
2018-04-10T22:54:15.187Z,14.50
2018-04-10T23:00:33.139Z,14.50
2018-04-10T23:06:37.195Z,14.60
2018-04-10T23:12:43.263Z,14.50
2018-04-10T23:18:47.699Z,14.40
2018-04-10T23:24:52.082Z,14.30
2018-04-10T23:30:56.431Z,14.20
2018-04-10T23:37:00.808Z,14.30
2018-04-10T23:43:05.186Z,14.50
2018-04-10T23:49:09.861Z,14.60
2018-04-10T23:55:14.231Z,14.60
